createdAt,value
2023-01-29T00:01:45.450Z,101657.73
2023-01-29T00:04:16.925Z,101655.28
2023-01-29T00:06:47.571Z,101646.42
2023-01-29T00:09:18.680Z,101647.80
2023-01-29T00:11:49.487Z,101650.06
2023-01-29T00:14:20.338Z,101646.41
2023-01-29T00:16:51.881Z,101641.19
2023-01-29T00:19:23.718Z,101642.51
2023-01-29T00:22:01.022Z,101636.70
2023-01-29T00:24:31.871Z,101636.96
2023-01-29T00:27:03.182Z,101635.46
2023-01-29T00:29:34.032Z,101628.48
2023-01-29T00:32:05.597Z,101628.52
2023-01-29T00:34:36.412Z,101623.73
2023-01-29T00:37:08.991Z,101622.10
2023-01-29T00:39:47.923Z,101619.50
2023-01-29T00:42:36.826Z,101618.05
2023-01-29T00:45:10.964Z,101619.77
2023-01-29T00:47:41.695Z,101616.16
2023-01-29T00:50:14.624Z,101616.86
2023-01-29T00:52:46.019Z,101618.08
2023-01-29T00:55:16.878Z,101616.02
2023-01-29T00:57:47.584Z,101616.79
2023-01-29T01:00:20.494Z,101613.55
2023-01-29T01:03:09.681Z,101616.35
2023-01-29T01:05:40.312Z,101621.98
2023-01-29T01:08:25.730Z,101625.91
2023-01-29T01:11:04.303Z,101628.12
2023-01-29T01:13:36.332Z,101629.94
2023-01-29T01:16:12.424Z,101631.11
2023-01-29T01:18:43.899Z,101627.55
2023-01-29T01:21:14.981Z,101623.84
2023-01-29T01:23:47.258Z,101627.27
2023-01-29T01:26:17.986Z,101626.81
2023-01-29T01:28:48.683Z,101620.65
2023-01-29T01:31:19.858Z,101615.34
2023-01-29T01:33:51.625Z,101610.95
2023-01-29T01:36:24.134Z,101612.42
2023-01-29T01:38:55.033Z,101614.73
2023-01-29T01:41:25.698Z,101611.50
2023-01-29T01:43:58.596Z,101610.85
2023-01-29T01:46:31.932Z,101607.48
2023-01-29T01:49:02.835Z,101599.70
2023-01-29T01:51:36.406Z,101598.55
2023-01-29T01:54:12.238Z,101591.95
2023-01-29T01:56:45.940Z,101599.95
2023-01-29T01:59:20.179Z,101608.31
2023-01-29T02:01:55.079Z,101608.35
2023-01-29T02:04:45.301Z,101607.89
2023-01-29T02:07:34.819Z,101604.34
2023-01-29T02:10:11.716Z,101596.52
2023-01-29T02:12:44.272Z,101585.31
2023-01-29T02:15:15.428Z,101586.26
2023-01-29T02:17:48.451Z,101579.55
2023-01-29T02:20:24.408Z,101582.22
2023-01-29T02:23:30.730Z,101586.14
2023-01-29T02:26:16.670Z,101582.39
2023-01-29T02:28:53.849Z,101584.09
2023-01-29T02:31:34.822Z,101587.93
2023-01-29T02:34:13.046Z,101591.28
2023-01-29T02:36:51.746Z,101594.84
2023-01-29T02:39:30.237Z,101587.33
2023-01-29T02:42:12.330Z,101581.29
2023-01-29T02:44:49.370Z,101578.77
2023-01-29T02:47:23.880Z,101590.50
2023-01-29T02:50:07.784Z,101590.23
2023-01-29T02:52:49.749Z,101591.47
2023-01-29T02:55:26.948Z,101593.39
2023-01-29T02:58:02.604Z,101594.36
2023-01-29T03:00:39.690Z,101590.23
2023-01-29T03:03:15.669Z,101593.01
2023-01-29T03:05:58.209Z,101588.80
2023-01-29T03:08:43.342Z,101598.77
2023-01-29T03:11:16.453Z,101597.50
2023-01-29T03:13:53.917Z,101593.50
2023-01-29T03:16:33.071Z,101596.33
2023-01-29T03:19:10.483Z,101600.39
2023-01-29T03:21:59.548Z,101602.84
2023-01-29T03:24:58.949Z,101595.00
2023-01-29T03:27:52.091Z,101589.80
2023-01-29T03:30:44.034Z,101587.95
2023-01-29T03:33:46.998Z,101589.95
2023-01-29T03:36:23.263Z,101593.40
2023-01-29T03:38:54.082Z,101596.79
2023-01-29T03:41:34.314Z,101599.42
2023-01-29T03:44:16.349Z,101593.73
2023-01-29T03:46:53.735Z,101597.84
2023-01-29T03:49:33.725Z,101598.02
2023-01-29T03:52:10.745Z,101593.89
2023-01-29T03:54:48.963Z,101589.20
2023-01-29T03:57:29.335Z,101591.16
2023-01-29T04:00:10.023Z,101593.80
2023-01-29T04:03:08.353Z,101602.95
2023-01-29T04:05:45.021Z,101607.88
2023-01-29T04:08:27.674Z,101610.52
2023-01-29T04:11:03.271Z,101605.41
2023-01-29T04:13:35.832Z,101593.19
2023-01-29T04:16:13.117Z,101590.04
2023-01-29T04:19:00.180Z,101579.93
2023-01-29T04:21:37.621Z,101573.61
2023-01-29T04:24:10.760Z,101564.95
2023-01-29T04:26:56.722Z,101561.06
2023-01-29T04:29:41.637Z,101560.59
2023-01-29T04:32:19.960Z,101562.61
2023-01-29T04:35:01.434Z,101556.08
2023-01-29T04:37:41.572Z,101553.71
2023-01-29T04:40:21.292Z,101546.25
2023-01-29T04:43:05.227Z,101540.69
2023-01-29T04:45:43.593Z,101545.23
2023-01-29T04:48:23.836Z,101543.91
2023-01-29T04:51:01.991Z,101543.07
2023-01-29T04:53:45.606Z,101540.52
2023-01-29T04:56:22.521Z,101526.39
2023-01-29T04:58:56.899Z,101522.70
2023-01-29T05:01:33.186Z,101520.47
2023-01-29T05:04:07.812Z,101510.64
2023-01-29T05:06:40.603Z,101507.75
2023-01-29T05:09:14.014Z,101504.04
2023-01-29T05:11:43.744Z,101505.19
2023-01-29T05:14:18.125Z,101499.25
2023-01-29T05:16:52.807Z,101491.73
2023-01-29T05:19:23.542Z,101500.95
2023-01-29T05:21:55.236Z,101503.21
2023-01-29T05:24:29.062Z,101498.33
2023-01-29T05:27:17.669Z,101497.98
2023-01-29T05:29:49.894Z,101489.99
2023-01-29T05:32:20.584Z,101487.27
2023-01-29T05:34:51.221Z,101490.70
2023-01-29T05:37:22.150Z,101492.08
2023-01-29T05:39:52.787Z,101492.10
2023-01-29T05:42:24.236Z,101490.01
2023-01-29T05:44:54.932Z,101487.14
2023-01-29T05:47:25.603Z,101488.92
2023-01-29T05:49:56.336Z,101489.73
2023-01-29T05:52:27.109Z,101491.56
2023-01-29T05:54:57.759Z,101480.47
2023-01-29T05:57:28.378Z,101480.52
2023-01-29T05:59:59.116Z,101481.05
2023-01-29T06:02:32.433Z,101487.27
2023-01-29T06:05:03.179Z,101493.63
2023-01-29T06:07:33.934Z,101494.65
2023-01-29T06:10:05.017Z,101501.95
2023-01-29T06:12:35.672Z,101499.48
2023-01-29T06:15:07.818Z,101492.73
2023-01-29T06:17:38.509Z,101490.97
2023-01-29T06:20:13.451Z,101497.42
2023-01-29T06:22:44.364Z,101505.79
2023-01-29T06:25:15.173Z,101517.63
2023-01-29T06:27:45.878Z,101525.84
2023-01-29T06:30:18.383Z,101532.04
2023-01-29T06:32:49.386Z,101532.87
2023-01-29T06:35:20.336Z,101533.75
2023-01-29T06:37:51.024Z,101537.79
2023-01-29T06:40:22.176Z,101540.73
2023-01-29T06:42:52.762Z,101542.27
2023-01-29T06:45:24.169Z,101538.52
2023-01-29T06:47:54.888Z,101535.98
2023-01-29T06:50:25.733Z,101539.39
2023-01-29T06:52:56.622Z,101536.08
2023-01-29T06:55:27.379Z,101553.34
2023-01-29T06:57:58.117Z,101564.30
2023-01-29T07:00:30.612Z,101578.54
2023-01-29T07:03:02.437Z,101581.02
2023-01-29T07:05:33.343Z,101579.61
2023-01-29T07:08:04.232Z,101580.01
2023-01-29T07:10:35.055Z,101584.38
2023-01-29T07:13:05.759Z,101586.56
2023-01-29T07:15:37.321Z,101594.48
2023-01-29T07:18:12.600Z,101596.33
2023-01-29T07:20:44.498Z,101600.55
2023-01-29T07:23:17.566Z,101597.66
2023-01-29T07:25:49.822Z,101595.70
2023-01-29T07:28:21.578Z,101597.06
2023-01-29T07:30:56.475Z,101589.96
2023-01-29T07:33:27.520Z,101583.36
2023-01-29T07:35:58.291Z,101577.95
2023-01-29T07:38:29.244Z,101575.83
2023-01-29T07:41:01.362Z,101577.35
2023-01-29T07:43:33.666Z,101576.60
2023-01-29T07:46:06.723Z,101569.84
2023-01-29T07:48:37.472Z,101574.04
2023-01-29T07:51:08.854Z,101575.99
2023-01-29T07:53:39.632Z,101576.14
2023-01-29T07:56:10.958Z,101569.20
2023-01-29T07:58:41.604Z,101557.50
2023-01-29T08:01:12.346Z,101554.11
2023-01-29T08:03:43.239Z,101544.09
2023-01-29T08:06:13.946Z,101534.89
2023-01-29T08:08:44.700Z,101529.05
2023-01-29T08:11:15.445Z,101532.62
2023-01-29T08:13:50.160Z,101530.23
2023-01-29T08:16:21.017Z,101528.04
2023-01-29T08:18:51.737Z,101531.61
2023-01-29T08:21:22.439Z,101524.42
2023-01-29T08:23:53.379Z,101518.50
2023-01-29T08:26:26.521Z,101511.11
2023-01-29T08:28:57.379Z,101508.11
2023-01-29T08:31:28.834Z,101508.55
2023-01-29T08:34:22.122Z,101508.77
2023-01-29T08:36:55.877Z,101507.55
2023-01-29T08:39:26.645Z,101508.14
2023-01-29T08:42:00.313Z,101507.84
2023-01-29T08:44:39.731Z,101504.96
2023-01-29T08:47:12.845Z,101512.98
2023-01-29T08:49:43.698Z,101523.06
2023-01-29T08:52:14.609Z,101522.50
2023-01-29T08:54:45.281Z,101529.49
2023-01-29T08:57:15.915Z,101531.08
2023-01-29T08:59:46.791Z,101527.23
2023-01-29T09:02:17.521Z,101520.42
2023-01-29T09:04:48.318Z,101516.89
2023-01-29T09:07:21.726Z,101501.85
2023-01-29T09:09:52.628Z,101509.09
2023-01-29T09:12:23.366Z,101503.39
2023-01-29T09:14:54.123Z,101502.98
2023-01-29T09:17:24.963Z,101501.21
2023-01-29T09:19:55.938Z,101509.70
2023-01-29T09:22:26.751Z,101510.34
2023-01-29T09:24:57.498Z,101508.67
2023-01-29T09:27:28.286Z,101501.85
2023-01-29T09:29:59.142Z,101485.96
2023-01-29T09:32:52.583Z,101484.65
2023-01-29T09:35:19.687Z,101486.13
2023-01-29T09:37:52.165Z,101496.55
2023-01-29T09:40:28.278Z,101497.92
2023-01-29T09:43:03.741Z,101495.42
2023-01-29T09:45:35.304Z,101493.34
2023-01-29T09:48:12.582Z,101490.56
2023-01-29T09:50:48.064Z,101484.22
2023-01-29T09:53:22.775Z,101479.91
2023-01-29T09:55:57.389Z,101473.84
2023-01-29T09:58:33.330Z,101462.02
2023-01-29T10:01:13.987Z,101450.52
2023-01-29T10:04:03.530Z,101444.96
2023-01-29T10:06:49.176Z,101446.04
2023-01-29T10:09:34.673Z,101447.23
2023-01-29T10:12:16.941Z,101448.25
2023-01-29T10:15:00.695Z,101445.81
2023-01-29T10:17:57.152Z,101445.45
2023-01-29T10:20:58.289Z,101451.52
2023-01-29T10:23:34.373Z,101454.88
2023-01-29T10:26:05.649Z,101438.47
2023-01-29T10:28:43.109Z,101454.23
2023-01-29T10:31:19.094Z,101445.59
2023-01-29T10:34:08.801Z,101451.45
2023-01-29T10:36:46.467Z,101455.83
2023-01-29T10:39:21.038Z,101453.29
2023-01-29T10:42:05.750Z,101454.27
2023-01-29T10:44:51.400Z,101452.36
2023-01-29T10:47:48.812Z,101448.68
2023-01-29T10:50:26.138Z,101442.39
2023-01-29T10:53:13.399Z,101440.39
2023-01-29T10:55:55.752Z,101435.30
2023-01-29T10:58:35.376Z,101413.77
2023-01-29T11:01:06.423Z,101404.22
2023-01-29T11:03:37.609Z,101397.98
2023-01-29T11:06:15.661Z,101394.42
2023-01-29T11:08:53.935Z,101391.70
2023-01-29T11:11:33.210Z,101390.62
2023-01-29T11:14:09.124Z,101385.94
2023-01-29T11:16:47.006Z,101377.39
2023-01-29T11:19:18.244Z,101372.34
2023-01-29T11:22:01.016Z,101365.86
2023-01-29T11:24:31.997Z,101361.54
2023-01-29T11:27:04.473Z,101355.85
2023-01-29T11:29:40.462Z,101356.90
2023-01-29T11:32:25.457Z,101350.02
2023-01-29T11:35:05.120Z,101339.54
2023-01-29T11:37:38.899Z,101337.21
2023-01-29T11:40:34.707Z,101333.42
2023-01-29T11:43:19.324Z,101333.91
2023-01-29T11:45:51.732Z,101335.84
2023-01-29T11:48:25.179Z,101343.20
2023-01-29T11:51:00.706Z,101340.13
2023-01-29T11:53:39.372Z,101341.08
2023-01-29T11:56:21.761Z,101341.61
2023-01-29T11:58:53.931Z,101331.85
2023-01-29T12:01:34.523Z,101330.80
2023-01-29T12:04:15.050Z,101326.60
2023-01-29T12:06:51.986Z,101313.13
2023-01-29T12:09:27.227Z,101305.75
2023-01-29T12:12:17.818Z,101301.66
2023-01-29T12:14:48.860Z,101299.81
2023-01-29T12:17:26.449Z,101302.84
2023-01-29T12:20:00.807Z,101297.23
2023-01-29T12:22:41.267Z,101288.33
2023-01-29T12:25:23.646Z,101275.42
2023-01-29T12:28:00.516Z,101271.23
2023-01-29T12:30:39.374Z,101262.09
2023-01-29T12:33:19.852Z,101255.15
2023-01-29T12:35:54.907Z,101248.56
2023-01-29T12:38:26.821Z,101253.38
2023-01-29T12:41:07.593Z,101256.27
2023-01-29T12:43:42.625Z,101252.35
2023-01-29T12:46:23.033Z,101248.65
2023-01-29T12:48:58.879Z,101257.84
2023-01-29T12:51:34.815Z,101250.67
2023-01-29T12:54:09.987Z,101246.11
2023-01-29T12:56:47.227Z,101250.07
2023-01-29T12:59:29.133Z,101245.86
2023-01-29T13:02:07.736Z,101233.05
2023-01-29T13:04:43.499Z,101227.80
2023-01-29T13:07:19.584Z,101230.11
2023-01-29T13:09:54.439Z,101234.41
2023-01-29T13:12:26.553Z,101230.14
2023-01-29T13:15:01.570Z,101220.11
2023-01-29T13:17:38.224Z,101215.39
2023-01-29T13:20:17.991Z,101213.70
2023-01-29T13:22:49.635Z,101213.61
2023-01-29T13:25:21.904Z,101207.67
2023-01-29T13:27:52.907Z,101203.66
2023-01-29T13:30:32.530Z,101201.02
2023-01-29T13:33:12.843Z,101202.33
2023-01-29T13:35:46.694Z,101201.45
2023-01-29T13:38:30.510Z,101204.64
2023-01-29T13:41:04.260Z,101203.65
2023-01-29T13:43:38.409Z,101205.48
2023-01-29T13:46:14.314Z,101202.02
2023-01-29T13:48:47.694Z,101198.99
2023-01-29T13:51:23.013Z,101210.60
2023-01-29T13:53:58.524Z,101218.50
2023-01-29T13:56:43.957Z,101216.53
2023-01-29T13:59:46.114Z,101206.17
2023-01-29T14:02:28.792Z,101199.73
2023-01-29T14:05:30.273Z,101195.64
2023-01-29T14:08:01.884Z,101191.80
2023-01-29T14:10:34.107Z,101188.67
2023-01-29T14:13:36.066Z,101189.08
2023-01-29T14:16:35.029Z,101191.70
2023-01-29T14:19:07.869Z,101197.21
2023-01-29T14:21:39.917Z,101197.02
2023-01-29T14:24:20.956Z,101191.39
2023-01-29T14:26:57.164Z,101182.84
2023-01-29T14:29:35.471Z,101172.75
2023-01-29T14:32:19.405Z,101169.86
2023-01-29T14:34:52.214Z,101171.86
2023-01-29T14:37:33.911Z,101172.05
2023-01-29T14:40:21.640Z,101170.03
2023-01-29T14:43:01.102Z,101177.48
2023-01-29T14:45:34.029Z,101182.90
2023-01-29T14:48:35.545Z,101182.36
2023-01-29T14:51:12.155Z,101184.06
2023-01-29T14:54:03.598Z,101186.11
2023-01-29T14:56:38.195Z,101191.17
2023-01-29T14:59:20.839Z,101190.50
2023-01-29T15:01:56.379Z,101186.95
2023-01-29T15:04:30.018Z,101187.77
2023-01-29T15:07:06.223Z,101184.48
2023-01-29T15:09:43.803Z,101186.62
2023-01-29T15:12:24.223Z,101193.95
2023-01-29T15:15:04.808Z,101189.09
2023-01-29T15:17:43.282Z,101184.71
2023-01-29T15:20:35.271Z,101174.83
2023-01-29T15:23:25.034Z,101175.21
2023-01-29T15:25:59.138Z,101177.63
2023-01-29T15:28:32.596Z,101166.16
2023-01-29T15:31:05.605Z,101156.31
2023-01-29T15:33:38.798Z,101164.06
2023-01-29T15:36:18.870Z,101164.02
2023-01-29T15:38:49.679Z,101167.55
2023-01-29T15:41:23.794Z,101163.36
2023-01-29T15:43:59.711Z,101162.44
2023-01-29T15:46:33.941Z,101156.74
2023-01-29T15:49:10.034Z,101152.48
2023-01-29T15:51:41.507Z,101150.02
2023-01-29T15:54:15.993Z,101148.16
2023-01-29T15:56:51.637Z,101146.46
2023-01-29T15:59:26.886Z,101147.27
2023-01-29T16:01:58.000Z,101144.55
2023-01-29T16:04:31.782Z,101142.59
2023-01-29T16:07:04.353Z,101146.96
2023-01-29T16:09:35.348Z,101143.67
2023-01-29T16:12:07.653Z,101137.60
2023-01-29T16:14:39.187Z,101138.10
2023-01-29T16:17:28.965Z,101128.41
2023-01-29T16:20:00.732Z,101130.89
2023-01-29T16:22:35.559Z,101128.08
2023-01-29T16:25:09.012Z,101129.80
2023-01-29T16:27:43.286Z,101127.80
2023-01-29T16:30:17.460Z,101124.35
2023-01-29T16:32:48.338Z,101122.05
2023-01-29T16:35:20.003Z,101116.73
2023-01-29T16:37:52.559Z,101114.96
2023-01-29T16:40:32.972Z,101113.71
2023-01-29T16:43:49.781Z,101111.48
2023-01-29T16:46:25.218Z,101106.39
2023-01-29T16:48:56.480Z,101103.76
2023-01-29T16:51:32.259Z,101101.05
2023-01-29T16:54:08.376Z,101101.61
2023-01-29T16:56:40.785Z,101098.59
2023-01-29T16:59:21.332Z,101096.95
2023-01-29T17:01:52.123Z,101092.59
2023-01-29T17:04:23.658Z,101086.29
2023-01-29T17:06:58.970Z,101089.11
2023-01-29T17:09:32.466Z,101087.69
2023-01-29T17:12:06.091Z,101089.33
2023-01-29T17:14:38.615Z,101089.25
2023-01-29T17:17:16.034Z,101093.05
2023-01-29T17:19:47.038Z,101092.30
2023-01-29T17:22:17.743Z,101085.92
2023-01-29T17:24:51.533Z,101087.04
2023-01-29T17:27:23.660Z,101084.16
2023-01-29T17:29:54.597Z,101082.86
2023-01-29T17:32:45.208Z,101084.48
2023-01-29T17:35:19.269Z,101081.45
2023-01-29T17:37:50.155Z,101087.98
2023-01-29T17:40:32.459Z,101083.14
2023-01-29T17:43:03.021Z,101084.39
2023-01-29T17:45:33.741Z,101084.53
2023-01-29T17:48:04.794Z,101081.31
2023-01-29T17:50:39.208Z,101086.80
2023-01-29T17:53:09.825Z,101078.52
2023-01-29T17:55:40.462Z,101077.30
2023-01-29T17:58:15.990Z,101077.33
2023-01-29T18:00:46.839Z,101071.94
2023-01-29T18:03:17.843Z,101067.16
2023-01-29T18:05:50.789Z,101067.55
2023-01-29T18:08:27.661Z,101068.95
2023-01-29T18:10:58.455Z,101067.32
2023-01-29T18:13:29.559Z,101064.02
2023-01-29T18:16:00.440Z,101059.60
2023-01-29T18:18:31.045Z,101054.94
2023-01-29T18:21:01.736Z,101051.62
2023-01-29T18:23:33.200Z,101046.72
2023-01-29T18:26:04.114Z,101043.20
2023-01-29T18:28:34.983Z,101046.58
2023-01-29T18:31:06.475Z,101041.33
2023-01-29T18:33:37.920Z,101033.95
2023-01-29T18:36:10.587Z,101029.42
2023-01-29T18:38:41.408Z,101024.08
2023-01-29T18:41:13.464Z,101018.45
2023-01-29T18:43:44.382Z,101015.53
2023-01-29T18:46:15.306Z,101016.51
2023-01-29T18:48:46.211Z,101017.55
2023-01-29T18:51:16.898Z,101014.46
2023-01-29T18:53:52.238Z,101011.44
2023-01-29T18:56:23.039Z,101006.72
2023-01-29T18:58:57.255Z,101000.11
2023-01-29T19:01:27.893Z,100989.90
2023-01-29T19:04:00.280Z,100987.61
2023-01-29T19:06:31.378Z,100981.40
2023-01-29T19:09:02.002Z,100982.36
2023-01-29T19:11:32.673Z,100975.88
2023-01-29T19:14:03.270Z,100973.17
2023-01-29T19:16:34.088Z,100970.66
2023-01-29T19:19:04.933Z,100967.23
2023-01-29T19:21:37.194Z,100963.14
2023-01-29T19:24:11.721Z,100965.77
2023-01-29T19:26:42.405Z,100964.02
2023-01-29T19:29:13.375Z,100962.63
2023-01-29T19:31:44.147Z,100963.27
2023-01-29T19:34:15.067Z,100955.90
2023-01-29T19:36:45.838Z,100955.83
2023-01-29T19:39:16.851Z,100953.27
2023-01-29T19:41:47.462Z,100953.83
2023-01-29T19:44:18.149Z,100953.80
2023-01-29T19:46:48.842Z,100949.67
2023-01-29T19:49:19.742Z,100944.58
2023-01-29T19:51:50.386Z,100943.02
2023-01-29T19:54:22.080Z,100944.38
2023-01-29T19:56:53.445Z,100940.04
2023-01-29T19:59:24.494Z,100943.46
2023-01-29T20:01:55.303Z,100945.90
2023-01-29T20:04:27.063Z,100950.52
2023-01-29T20:06:57.874Z,100948.69
2023-01-29T20:09:30.440Z,100948.36
2023-01-29T20:12:01.404Z,100949.19
2023-01-29T20:14:32.475Z,100942.54
2023-01-29T20:17:03.752Z,100955.30
2023-01-29T20:19:34.865Z,100954.92
2023-01-29T20:22:06.745Z,100954.98
2023-01-29T20:24:42.114Z,100950.39
2023-01-29T20:27:16.009Z,100949.50
2023-01-29T20:29:46.685Z,100945.11
2023-01-29T20:32:17.482Z,100944.36
2023-01-29T20:34:52.051Z,100938.89
2023-01-29T20:37:23.104Z,100940.48
2023-01-29T20:39:54.094Z,100940.83
2023-01-29T20:42:24.854Z,100935.30
2023-01-29T20:44:55.816Z,100935.11
2023-01-29T20:47:26.759Z,100929.95
2023-01-29T20:50:00.071Z,100932.30
2023-01-29T20:52:29.374Z,100930.27
2023-01-29T20:55:00.334Z,100932.54
2023-01-29T20:57:31.208Z,100927.83
2023-01-29T21:00:01.964Z,100922.33
2023-01-29T21:02:33.877Z,100923.05
2023-01-29T21:05:06.480Z,100917.76
2023-01-29T21:07:37.303Z,100914.48
2023-01-29T21:10:11.842Z,100908.20
2023-01-29T21:12:42.665Z,100900.20
2023-01-29T21:15:14.285Z,100894.78
2023-01-29T21:17:44.948Z,100886.08
2023-01-29T21:20:17.180Z,100882.27
2023-01-29T21:22:49.257Z,100870.93
2023-01-29T21:25:21.635Z,100863.41
2023-01-29T21:27:52.593Z,100860.16
2023-01-29T21:30:24.055Z,100860.63
2023-01-29T21:32:55.003Z,100864.40
2023-01-29T21:35:25.892Z,100857.80
2023-01-29T21:37:57.455Z,100856.55
2023-01-29T21:40:30.609Z,100857.32
2023-01-29T21:43:13.472Z,100854.89
2023-01-29T21:45:45.313Z,100849.35
2023-01-29T21:48:16.138Z,100848.45
2023-01-29T21:50:48.729Z,100843.67
2023-01-29T21:53:22.526Z,100836.42
2023-01-29T21:55:53.874Z,100826.11
2023-01-29T21:58:24.873Z,100818.83
2023-01-29T22:00:55.908Z,100819.80
2023-01-29T22:03:26.809Z,100811.65
2023-01-29T22:05:57.601Z,100797.98
2023-01-29T22:08:28.698Z,100791.17
2023-01-29T22:10:59.873Z,100782.69
2023-01-29T22:13:31.081Z,100781.55
2023-01-29T22:16:02.695Z,100780.27
2023-01-29T22:18:33.477Z,100769.44
2023-01-29T22:21:04.967Z,100762.12
2023-01-29T22:23:35.824Z,100752.89
2023-01-29T22:26:08.993Z,100738.57
2023-01-29T22:28:39.928Z,100741.41
2023-01-29T22:31:11.244Z,100728.63
2023-01-29T22:33:42.335Z,100723.23
2023-01-29T22:36:13.433Z,100716.30
2023-01-29T22:38:45.959Z,100711.56
2023-01-29T22:41:19.260Z,100704.86
2023-01-29T22:43:48.483Z,100706.05
2023-01-29T22:46:19.206Z,100704.39
2023-01-29T22:48:50.285Z,100698.08
2023-01-29T22:51:21.630Z,100690.77
2023-01-29T22:53:53.857Z,100683.55
2023-01-29T22:56:26.545Z,100668.71
2023-01-29T22:58:58.881Z,100665.80
2023-01-29T23:01:31.394Z,100664.55
2023-01-29T23:04:02.144Z,100663.23
2023-01-29T23:06:32.997Z,100662.17
2023-01-29T23:09:03.700Z,100656.80
2023-01-29T23:11:34.521Z,100658.09
2023-01-29T23:14:05.332Z,100649.88
2023-01-29T23:16:36.290Z,100647.81
2023-01-29T23:19:07.535Z,100638.61
2023-01-29T23:21:38.394Z,100633.33
2023-01-29T23:24:11.594Z,100635.75
2023-01-29T23:27:00.108Z,100639.27
2023-01-29T23:29:30.786Z,100627.77
2023-01-29T23:32:01.453Z,100622.70
2023-01-29T23:34:32.321Z,100620.10
2023-01-29T23:37:03.118Z,100616.12
2023-01-29T23:39:34.190Z,100604.13
2023-01-29T23:42:05.329Z,100599.20
2023-01-29T23:44:36.158Z,100591.63
2023-01-29T23:47:07.164Z,100578.73
2023-01-29T23:49:38.523Z,100569.10
2023-01-29T23:52:09.481Z,100556.14
2023-01-29T23:54:42.560Z,100554.82
2023-01-29T23:57:13.212Z,100556.17
2023-01-29T23:59:44.069Z,100555.70
